Time;durP1;ratioP1;P1;durP2;ratioP2;P2;SDS_P1;SDS_P2;PMS_P1;PMS_P2;Temp;Humidity;BMP_temperature;BMP_pressure;BME280_temperature;BME280_humidity;BME280_pressure;Samples;Min_cycle;Max_cycle;Signal;HPM_P1;HPM_P2
2023/02/22 00:02:10;;;;;;;;;;;;;;;15.40;29.44;99445.97;5091847;28;20068;-43
2023/02/22 00:04:38;;;;;;;;;;;;;;;15.38;29.11;99445.41;5092085;28;19923;-42
2023/02/22 00:07:03;;;;;;;;;;;;;;;15.46;29.65;99452.22;5091767;28;19966;-42
2023/02/22 00:09:29;;;;;;;;;;;;;;;15.43;29.78;99445.47;5091714;28;20392;-43
2023/02/22 00:11:54;;;;;;;;;;;;;;;15.45;29.15;99447.91;5091705;28;20284;-42
2023/02/22 00:14:19;;;;;;;;;;;;;;;15.33;29.45;99449.84;5091481;28;19919;-43
2023/02/22 00:16:45;;;;;;;;;;;;;;;15.45;29.65;99451.41;5091959;28;19923;-42
2023/02/22 00:19:10;;;;;;;;;;;;;;;15.51;29.93;99456.84;5091633;28;20353;-44
2023/02/22 00:21:36;;;;;;;;;;;;;;;15.50;29.88;99455.22;5091572;28;19932;-42
2023/02/22 00:24:15;;;;;;;;;;;;;;;15.66;29.88;99454.41;5089838;28;20391;-42
2023/02/22 00:26:41;;;;;;;;;;;;;;;15.57;29.73;99454.03;5091514;28;19916;-43
2023/02/22 00:29:07;;;;;;;;;;;;;;;15.70;29.37;99454.75;5091421;28;19965;-42
2023/02/22 00:31:36;;;;;;;;;;;;;;;15.48;29.14;99449.28;5091150;28;19923;-42
2023/02/22 00:34:01;;;;;;;;;;;;;;;15.49;29.43;99450.91;5091382;28;20030;-42
2023/02/22 00:36:26;;;;;;;;;;;;;;;15.67;29.71;99447.16;5091607;28;19912;-42
2023/02/22 00:38:52;;;;;;;;;;;;;;;15.69;29.08;99451.25;5091252;28;20340;-42
2023/02/22 00:41:17;;;;;;;;;;;;;;;15.49;29.59;99446.34;5091131;28;19924;-42
2023/02/22 00:43:42;;;;;;;;;;;;;;;15.52;29.95;99445.88;5091102;28;20403;-42
2023/02/22 00:46:07;;;;;;;;;;;;;;;15.43;30.22;99447.34;5091186;28;19998;-41
2023/02/22 00:48:33;;;;;;;;;;;;;;;15.48;29.78;99449.28;5090918;28;19969;-42
2023/02/22 00:50:58;;;;;;;;;;;;;;;15.42;30.44;99451.91;5091227;28;20023;-43
2023/02/22 00:53:24;;;;;;;;;;;;;;;15.50;29.82;99449.84;5091065;28;20044;-42
2023/02/22 00:55:49;;;;;;;;;;;;;;;15.38;29.88;99453.44;5091320;28;19993;-42
2023/02/22 00:58:15;;;;;;;;;;;;;;;15.64;29.60;99453.84;5090814;28;20347;-41
2023/02/22 01:00:41;;;;;;;;;;;;;;;15.59;29.78;99462.63;5090795;28;19919;-42
2023/02/22 01:03:08;;;;;;;;;;;;;;;15.50;29.35;99463.25;5090704;28;19963;-43
2023/02/22 01:05:34;;;;;;;;;;;;;;;15.58;29.67;99465.56;5091093;28;19912;-42
2023/02/22 01:08:00;;;;;;;;;;;;;;;15.37;30.20;99465.19;5090929;28;20339;-42
2023/02/22 01:10:27;;;;;;;;;;;;;;;15.10;31.20;99472.19;5090222;28;20032;-42
2023/02/22 01:12:53;;;;;;;;;;;;;;;15.04;30.44;99465.94;5090539;28;19916;-42
2023/02/22 01:15:22;;;;;;;;;;;;;;;15.28;30.43;99452.44;5091030;28;19908;-42
2023/02/22 01:17:48;;;;;;;;;;;;;;;15.26;30.45;99458.03;5090573;28;19918;-42
2023/02/22 01:20:14;;;;;;;;;;;;;;;15.03;31.01;99453.59;5090847;28;19912;-42
2023/02/22 01:22:39;;;;;;;;;;;;;;;15.13;30.33;99448.41;5090421;28;20373;-43
2023/02/22 01:25:06;;;;;;;;;;;;;;;15.23;30.77;99456.66;5090308;28;20455;-43
2023/02/22 01:27:31;;;;;;;;;;;;;;;15.22;30.37;99455.03;5090655;28;19919;-42
2023/02/22 01:29:57;;;;;;;;;;;;;;;15.55;30.49;99452.63;5076627;28;20029;-42
2023/02/22 01:32:22;;;;;;;;;;;;;;;15.51;30.05;99444.25;5080968;28;19927;-42
2023/02/22 01:34:47;;;;;;;;;;;;;;;15.29;30.63;99446.00;5078904;28;19932;-42
2023/02/22 01:37:12;;;;;;;;;;;;;;;15.20;31.43;99459.81;5080298;28;20394;-42
2023/02/22 01:39:38;;;;;;;;;;;;;;;15.03;31.24;99449.03;5080424;28;19916;-42
2023/02/22 01:42:03;;;;;;;;;;;;;;;15.38;30.96;99444.56;5081501;28;20038;-42
2023/02/22 01:44:33;;;;;;;;;;;;;;;15.07;31.12;99438.66;5090348;28;19920;-44
2023/02/22 01:47:00;;;;;;;;;;;;;;;14.86;31.24;99440.97;5090259;28;19919;-42
2023/02/22 01:49:29;;;;;;;;;;;;;;;14.88;31.46;99440.72;5089741;28;20360;-43
2023/02/22 01:51:57;;;;;;;;;;;;;;;14.76;31.81;99440.78;5090415;28;20007;-43
2023/02/22 01:54:25;;;;;;;;;;;;;;;14.88;31.51;99439.91;5090097;28;19931;-44
2023/02/22 01:56:53;;;;;;;;;;;;;;;14.82;31.71;99436.34;5089835;28;20007;-41
2023/02/22 01:59:19;;;;;;;;;;;;;;;14.95;31.53;99440.59;5089995;28;20010;-41
2023/02/22 02:01:45;;;;;;;;;;;;;;;14.98;31.40;99440.94;5090067;28;19936;-42
2023/02/22 02:04:19;;;;;;;;;;;;;;;14.80;31.48;99439.25;5089733;28;20337;-41
2023/02/22 02:06:45;;;;;;;;;;;;;;;14.83;30.98;99441.44;5090313;28;19982;-42
2023/02/22 02:09:15;;;;;;;;;;;;;;;14.80;31.59;99449.94;5090680;28;19946;-42
2023/02/22 02:11:41;;;;;;;;;;;;;;;15.13;30.72;99442.25;5090817;28;19913;-41
2023/02/22 02:14:07;;;;;;;;;;;;;;;15.00;31.37;99443.34;5090677;28;19919;-42
2023/02/22 02:16:35;;;;;;;;;;;;;;;14.96;30.80;99451.06;5090830;28;19923;-42
2023/02/22 02:19:02;;;;;;;;;;;;;;;14.77;31.29;99452.28;5090679;28;20018;-41
2023/02/22 02:21:27;;;;;;;;;;;;;;;14.88;31.33;99447.97;5092785;28;20299;-42
2023/02/22 02:23:53;;;;;;;;;;;;;;;14.92;31.53;99451.78;5094255;28;20003;-43
2023/02/22 02:26:19;;;;;;;;;;;;;;;14.72;31.08;99426.22;5094225;28;20006;-42
2023/02/22 02:29:02;;;;;;;;;;;;;;;14.87;31.22;99452.50;5094310;28;19998;-42
2023/02/22 02:31:27;;;;;;;;;;;;;;;14.70;32.00;99460.47;5094367;28;20031;-42
2023/02/22 02:34:02;;;;;;;;;;;;;;;14.92;31.82;99463.31;5094116;28;19955;-42
2023/02/22 02:36:41;;;;;;;;;;;;;;;14.94;31.32;99469.22;5094102;28;19947;-42
2023/02/22 02:39:16;;;;;;;;;;;;;;;14.97;31.17;99462.59;5093913;28;19912;-42
2023/02/22 02:41:44;;;;;;;;;;;;;;;14.80;31.22;99459.88;5094286;28;19923;-42
2023/02/22 02:44:15;;;;;;;;;;;;;;;14.48;31.82;99462.94;5093982;28;19949;-42
2023/02/22 02:46:47;;;;;;;;;;;;;;;14.70;31.30;99457.81;5093938;28;20007;-42
2023/02/22 02:49:15;;;;;;;;;;;;;;;14.44;31.50;99464.47;5094076;28;19916;-44
2023/02/22 02:51:43;;;;;;;;;;;;;;;14.46;31.78;99467.72;5093953;28;20120;-43
2023/02/22 02:54:09;;;;;;;;;;;;;;;14.61;31.74;99468.06;5090934;28;19924;-43
2023/02/22 02:56:34;;;;;;;;;;;;;;;14.69;31.14;99464.19;5091158;28;19912;-44
2023/02/22 02:58:59;;;;;;;;;;;;;;;14.84;31.40;99466.38;5094062;28;19912;-44
2023/02/22 03:01:32;;;;;;;;;;;;;;;14.38;31.66;99474.25;5093685;28;19934;-44
2023/02/22 03:04:06;;;;;;;;;;;;;;;14.85;31.51;99479.53;5093731;28;19916;-44
2023/02/22 03:06:37;;;;;;;;;;;;;;;14.81;31.08;99477.53;5093681;28;19943;-43
2023/02/22 03:09:21;;;;;;;;;;;;;;;14.60;31.57;99473.66;5093540;28;19928;-44
2023/02/22 03:11:47;;;;;;;;;;;;;;;14.25;32.40;99479.84;5093655;28;19912;-43
2023/02/22 03:14:20;;;;;;;;;;;;;;;14.48;32.46;99484.34;5093364;28;19912;-43
2023/02/22 03:16:52;;;;;;;;;;;;;;;14.24;32.17;99480.88;5093488;28;20431;-43
2023/02/22 03:19:18;;;;;;;;;;;;;;;14.58;31.81;99489.13;5093231;28;19939;-43
2023/02/22 03:21:49;;;;;;;;;;;;;;;14.11;33.23;99487.28;5093272;28;19912;-44
2023/02/22 03:24:30;;;;;;;;;;;;;;;13.90;33.21;99488.69;5093362;28;19920;-43
2023/02/22 03:26:55;;;;;;;;;;;;;;;13.84;33.50;99492.25;5093122;28;19912;-43
2023/02/22 03:29:22;;;;;;;;;;;;;;;13.79;33.48;99498.31;5092631;28;19946;-43
2023/02/22 03:31:49;;;;;;;;;;;;;;;13.36;34.50;99501.22;5092863;28;19912;-44
2023/02/22 03:34:21;;;;;;;;;;;;;;;13.32;34.66;99500.06;5092782;28;20287;-43
2023/02/22 03:36:58;;;;;;;;;;;;;;;12.61;35.71;99511.16;5092735;28;19942;-42
2023/02/22 03:39:29;;;;;;;;;;;;;;;12.17;37.09;99512.25;5093156;28;19912;-43
2023/02/22 03:41:56;;;;;;;;;;;;;;;12.26;36.89;99522.41;5093386;28;20344;-43
2023/02/22 03:44:24;;;;;;;;;;;;;;;12.42;36.47;99515.69;5092769;28;20505;-43
2023/02/22 03:46:51;;;;;;;;;;;;;;;12.35;36.10;99506.91;5091401;28;19912;-43
2023/02/22 03:49:22;;;;;;;;;;;;;;;12.55;35.89;99508.59;5092980;28;20012;-43
2023/02/22 03:51:48;;;;;;;;;;;;;;;12.56;36.26;99512.88;5092929;28;19912;-42
2023/02/22 03:54:15;;;;;;;;;;;;;;;12.64;36.02;99512.56;5092767;28;19912;-43
2023/02/22 03:57:12;;;;;;;;;;;;;;;12.54;35.70;99504.28;5093080;28;19935;-44
2023/02/22 03:59:38;;;;;;;;;;;;;;;12.45;36.08;99515.25;5080045;28;20283;-43
2023/02/22 04:02:04;;;;;;;;;;;;;;;12.25;36.20;99510.09;5092577;28;19912;-43
2023/02/22 04:04:29;;;;;;;;;;;;;;;12.36;36.55;99515.75;5092661;28;19944;-43
2023/02/22 04:06:54;;;;;;;;;;;;;;;12.43;35.90;99512.00;5092588;28;19919;-42
2023/02/22 04:09:19;;;;;;;;;;;;;;;12.36;35.78;99513.91;5092081;28;19918;-42
2023/02/22 04:11:45;;;;;;;;;;;;;;;12.57;35.64;99517.19;5092541;28;20316;-43
2023/02/22 04:14:10;;;;;;;;;;;;;;;12.50;35.94;99511.91;5087990;28;19924;-42
2023/02/22 04:16:35;;;;;;;;;;;;;;;12.61;35.62;99513.84;5072254;28;20368;-42
2023/02/22 04:19:01;;;;;;;;;;;;;;;12.76;34.96;99520.69;5072094;28;20376;-42
2023/02/22 04:21:26;;;;;;;;;;;;;;;12.82;35.37;99515.25;5072100;28;20372;-42
2023/02/22 04:23:52;;;;;;;;;;;;;;;12.95;34.31;99516.16;5088452;28;20006;-42
2023/02/22 04:26:17;;;;;;;;;;;;;;;12.95;34.32;99516.94;5092121;28;19962;-42
2023/02/22 04:28:42;;;;;;;;;;;;;;;12.81;34.46;99521.66;5091855;28;19912;-43
2023/02/22 04:31:08;;;;;;;;;;;;;;;12.76;34.74;99521.47;5092092;28;20364;-42
2023/02/22 04:33:33;;;;;;;;;;;;;;;12.58;34.65;99513.47;5091838;28;19912;-42
2023/02/22 04:35:58;;;;;;;;;;;;;;;12.91;34.44;99513.09;5092070;28;19965;-42
2023/02/22 04:38:24;;;;;;;;;;;;;;;12.78;34.06;99522.06;5092302;28;19912;-42
2023/02/22 04:40:50;;;;;;;;;;;;;;;13.03;34.02;99515.81;5092135;28;19919;-42
2023/02/22 04:43:15;;;;;;;;;;;;;;;12.90;34.38;99514.94;5092272;28;19924;-42
2023/02/22 04:45:41;;;;;;;;;;;;;;;12.89;33.72;99515.19;5091966;28;19916;-42
2023/02/22 04:48:06;;;;;;;;;;;;;;;13.04;34.25;99504.09;5091518;28;19912;-42
2023/02/22 04:50:31;;;;;;;;;;;;;;;13.15;34.00;99508.66;5091566;28;19912;-42
2023/02/22 04:52:56;;;;;;;;;;;;;;;13.15;33.48;99506.00;5091459;28;20020;-43
2023/02/22 04:55:22;;;;;;;;;;;;;;;13.14;33.70;99500.91;5091109;28;19919;-42
2023/02/22 04:57:47;;;;;;;;;;;;;;;13.10;33.68;99506.69;5091300;28;20023;-42
2023/02/22 05:00:16;;;;;;;;;;;;;;;13.15;33.10;99508.66;5090109;28;19919;-42
2023/02/22 05:02:42;;;;;;;;;;;;;;;13.39;34.41;99509.63;5091640;28;19930;-43
2023/02/22 05:05:07;;;;;;;;;;;;;;;13.33;33.19;99504.34;5091105;28;20028;-42
2023/02/22 05:07:32;;;;;;;;;;;;;;;13.24;33.37;99512.66;5091376;28;19912;-44
2023/02/22 05:09:58;;;;;;;;;;;;;;;13.52;33.09;99505.09;5091311;28;19912;-43
2023/02/22 05:12:25;;;;;;;;;;;;;;;13.43;33.58;99510.78;5089779;28;19922;-42
2023/02/22 05:14:51;;;;;;;;;;;;;;;13.55;32.95;99505.47;5083175;28;20336;-42
2023/02/22 05:17:17;;;;;;;;;;;;;;;13.62;32.80;99508.84;5081391;28;19931;-42
2023/02/22 05:19:42;;;;;;;;;;;;;;;13.34;33.09;99504.13;5079479;28;20007;-43
2023/02/22 05:22:07;;;;;;;;;;;;;;;13.54;32.71;99503.84;5079983;28;20599;-43
2023/02/22 05:24:33;;;;;;;;;;;;;;;13.81;32.25;99509.59;5081360;28;19951;-43
2023/02/22 05:26:59;;;;;;;;;;;;;;;13.79;32.18;99514.38;5082508;28;19913;-42
2023/02/22 05:29:26;;;;;;;;;;;;;;;13.72;32.33;99519.00;5083446;28;20160;-43
2023/02/22 05:31:51;;;;;;;;;;;;;;;13.72;32.51;99516.31;5077116;28;19916;-42
2023/02/22 05:34:17;;;;;;;;;;;;;;;13.80;32.24;99518.69;5080634;28;20046;-43
2023/02/22 05:36:42;;;;;;;;;;;;;;;14.20;31.70;99522.53;5077094;28;19912;-43
2023/02/22 05:39:07;;;;;;;;;;;;;;;14.38;31.47;99529.66;5070088;28;19919;-43
2023/02/22 05:41:33;;;;;;;;;;;;;;;14.06;31.76;99524.63;5070471;28;19917;-45
2023/02/22 05:43:58;;;;;;;;;;;;;;;14.62;31.54;99522.41;5070367;28;20253;-41
2023/02/22 05:46:24;;;;;;;;;;;;;;;14.32;31.77;99523.38;5070318;28;19913;-42
2023/02/22 05:48:49;;;;;;;;;;;;;;;14.44;31.10;99531.38;5069857;28;19913;-42
2023/02/22 05:51:14;;;;;;;;;;;;;;;14.29;31.75;99526.50;5069595;28;19923;-42
2023/02/22 05:53:41;;;;;;;;;;;;;;;14.41;31.55;99535.34;5068769;28;19912;-42
2023/02/22 05:56:06;;;;;;;;;;;;;;;14.66;31.20;99543.16;5069764;28;19916;-43
2023/02/22 05:58:32;;;;;;;;;;;;;;;14.74;30.96;99536.63;5072749;28;19989;-43
2023/02/22 06:00:57;;;;;;;;;;;;;;;15.02;30.51;99543.06;5078049;28;20276;-43
2023/02/22 06:03:22;;;;;;;;;;;;;;;14.89;30.50;99551.38;5089078;28;20001;-42
2023/02/22 06:05:47;;;;;;;;;;;;;;;14.93;30.88;99545.31;5082713;28;19919;-42
2023/02/22 06:08:13;;;;;;;;;;;;;;;14.82;30.81;99551.50;5087997;28;19935;-42
2023/02/22 06:10:38;;;;;;;;;;;;;;;14.88;30.93;99555.13;5093268;28;19912;-42
2023/02/22 06:13:04;;;;;;;;;;;;;;;14.86;30.82;99556.16;5093575;28;19935;-43
2023/02/22 06:15:29;;;;;;;;;;;;;;;14.79;31.53;99558.16;5081433;28;19942;-43
2023/02/22 06:17:55;;;;;;;;;;;;;;;14.54;31.95;99554.88;5073833;28;19917;-41
2023/02/22 06:20:21;;;;;;;;;;;;;;;14.76;31.40;99565.84;5073545;28;20397;-42
2023/02/22 06:22:47;;;;;;;;;;;;;;;14.83;31.38;99563.84;5077807;28;19932;-43
2023/02/22 06:25:15;;;;;;;;;;;;;;;14.86;31.52;99560.69;5082779;28;19955;-42
2023/02/22 06:27:40;;;;;;;;;;;;;;;14.61;32.05;99558.28;5081315;28;20065;-42
2023/02/22 06:30:05;;;;;;;;;;;;;;;15.07;31.54;99558.44;5088856;28;19923;-42
2023/02/22 06:32:31;;;;;;;;;;;;;;;14.86;32.13;99560.69;5093084;28;20253;-43
2023/02/22 06:34:56;;;;;;;;;;;;;;;14.77;31.43;99568.28;5093673;28;20226;-43
2023/02/22 06:37:21;;;;;;;;;;;;;;;14.92;31.45;99566.97;5093442;28;19923;-42
2023/02/22 06:39:47;;;;;;;;;;;;;;;14.89;31.97;99570.13;5093562;28;19912;-43
2023/02/22 06:42:13;;;;;;;;;;;;;;;14.73;31.75;99571.66;5092877;28;20355;-42
2023/02/22 06:44:38;;;;;;;;;;;;;;;14.86;32.19;99574.91;5093857;28;19924;-42
2023/02/22 06:47:04;;;;;;;;;;;;;;;15.16;34.12;99573.91;5094057;28;19920;-43
2023/02/22 06:49:29;;;;;;;;;;;;;;;15.65;35.80;99578.88;5093994;28;19919;-43
2023/02/22 06:51:54;;;;;;;;;;;;;;;15.89;32.90;99581.44;5093802;28;20261;-44
2023/02/22 06:54:20;;;;;;;;;;;;;;;16.06;31.54;99576.09;5093877;28;19999;-42
2023/02/22 06:56:46;;;;;;;;;;;;;;;16.91;31.67;99574.97;5093631;28;20399;-44
2023/02/22 06:59:11;;;;;;;;;;;;;;;17.88;28.35;99575.25;5092574;28;20048;-42
2023/02/22 07:01:39;;;;;;;;;;;;;;;18.84;27.32;99578.88;5092217;28;20414;-44
2023/02/22 07:04:04;;;;;;;;;;;;;;;19.67;25.90;99580.00;5092236;28;19939;-42
2023/02/22 07:06:30;;;;;;;;;;;;;;;20.25;25.34;99577.88;5091502;28;20353;-43
2023/02/22 07:08:55;;;;;;;;;;;;;;;20.72;24.43;99578.66;5091792;28;19974;-42
2023/02/22 07:11:20;;;;;;;;;;;;;;;20.81;24.11;99571.59;5092166;28;19912;-43
2023/02/22 07:13:45;;;;;;;;;;;;;;;21.27;23.58;99576.81;5093086;28;19984;-42
2023/02/22 07:16:11;;;;;;;;;;;;;;;21.58;23.70;99571.25;5092656;28;19912;-42
2023/02/22 07:18:36;;;;;;;;;;;;;;;21.90;23.20;99572.66;5092326;28;19916;-42
2023/02/22 07:21:01;;;;;;;;;;;;;;;22.20;22.88;99573.47;5092633;28;19912;-42
2023/02/22 07:23:26;;;;;;;;;;;;;;;22.73;22.49;99576.28;5092510;28;19928;-42
2023/02/22 07:25:52;;;;;;;;;;;;;;;22.27;22.59;99573.19;5093066;28;20308;-41
2023/02/22 07:28:17;;;;;;;;;;;;;;;22.92;21.85;99573.59;5092928;28;19919;-41
2023/02/22 07:30:43;;;;;;;;;;;;;;;23.16;21.62;99576.31;5092885;28;19951;-42
2023/02/22 07:33:09;;;;;;;;;;;;;;;23.16;21.78;99570.88;5092204;28;19998;-41
2023/02/22 07:35:36;;;;;;;;;;;;;;;23.23;21.55;99576.78;5092502;28;19919;-43
2023/02/22 07:38:02;;;;;;;;;;;;;;;23.62;21.05;99564.00;5092469;28;20421;-41
2023/02/22 07:40:27;;;;;;;;;;;;;;;23.98;21.14;99569.72;5092338;28;19916;-42
2023/02/22 07:42:54;;;;;;;;;;;;;;;24.76;20.23;99561.81;5092414;28;19927;-40
2023/02/22 07:45:20;;;;;;;;;;;;;;;24.36;20.58;99566.09;5092619;28;19981;-42
2023/02/22 07:47:46;;;;;;;;;;;;;;;24.51;20.65;99560.41;5092473;28;19908;-42
2023/02/22 07:50:13;;;;;;;;;;;;;;;24.52;20.25;99563.94;5092284;28;19947;-41
2023/02/22 07:52:38;;;;;;;;;;;;;;;24.16;20.28;99561.81;5092259;28;19911;-42
2023/02/22 07:55:05;;;;;;;;;;;;;;;24.10;20.45;99561.09;5092754;28;20320;-41
2023/02/22 07:57:31;;;;;;;;;;;;;;;25.02;19.83;99560.50;5092113;28;20289;-41
2023/02/22 07:59:56;;;;;;;;;;;;;;;24.66;20.26;99553.88;5092200;28;20388;-40
2023/02/22 08:02:22;;;;;;;;;;;;;;;24.17;20.10;99558.00;5092518;28;19913;-43
2023/02/22 08:04:47;;;;;;;;;;;;;;;24.31;20.39;99561.56;5092459;28;19977;-41
2023/02/22 08:07:12;;;;;;;;;;;;;;;24.78;20.11;99551.44;5091872;28;20298;-41
2023/02/22 08:09:37;;;;;;;;;;;;;;;24.98;19.39;99547.53;5092065;28;19912;-41
2023/02/22 08:12:03;;;;;;;;;;;;;;;25.05;19.62;99546.28;5091822;28;20365;-41
2023/02/22 08:14:28;;;;;;;;;;;;;;;25.58;19.40;99545.69;5092138;28;19918;-42
2023/02/22 08:16:53;;;;;;;;;;;;;;;26.02;18.97;99549.56;5092031;28;19969;-42
2023/02/22 08:19:18;;;;;;;;;;;;;;;25.21;19.41;99544.88;5091317;28;19912;-42
2023/02/22 08:21:44;;;;;;;;;;;;;;;25.17;19.49;99547.38;5091729;28;19912;-42
2023/02/22 08:24:09;;;;;;;;;;;;;;;24.75;19.63;99543.09;5091809;28;19927;-42
2023/02/22 08:26:34;;;;;;;;;;;;;;;25.23;19.62;99539.94;5091744;28;20341;-41
2023/02/22 08:28:59;;;;;;;;;;;;;;;24.34;20.21;99538.41;5091822;28;19919;-42
2023/02/22 08:31:25;;;;;;;;;;;;;;;24.48;20.06;99539.22;5091857;28;20350;-42
2023/02/22 08:33:50;;;;;;;;;;;;;;;25.17;19.37;99531.06;5091695;28;19919;-42
2023/02/22 08:36:17;;;;;;;;;;;;;;;24.63;20.12;99526.47;5092041;28;19912;-41
2023/02/22 08:38:42;;;;;;;;;;;;;;;24.10;20.40;99536.63;5091986;28;19915;-41
2023/02/22 08:41:08;;;;;;;;;;;;;;;25.06;19.89;99520.69;5090951;28;20069;-41
2023/02/22 08:43:33;;;;;;;;;;;;;;;25.31;19.69;99519.34;5091833;28;19920;-41
2023/02/22 08:45:58;;;;;;;;;;;;;;;26.09;19.11;99527.31;5091944;28;20019;-42
2023/02/22 08:48:24;;;;;;;;;;;;;;;26.61;18.58;99524.06;5091678;28;20006;-42
2023/02/22 08:50:49;;;;;;;;;;;;;;;26.96;18.27;99526.88;5091117;28;19923;-42
2023/02/22 08:53:15;;;;;;;;;;;;;;;26.50;18.80;99523.50;5091394;28;19919;-42
2023/02/22 08:55:40;;;;;;;;;;;;;;;26.31;18.75;99518.28;5091792;28;19912;-42
2023/02/22 08:58:08;;;;;;;;;;;;;;;26.21;18.82;99522.09;5091482;28;19961;-42
2023/02/22 09:00:34;;;;;;;;;;;;;;;25.20;19.89;99529.63;5091114;28;19937;-43
2023/02/22 09:03:00;;;;;;;;;;;;;;;25.96;19.16;99529.00;5090961;28;19970;-40
2023/02/22 09:05:25;;;;;;;;;;;;;;;25.00;19.89;99511.84;5091384;28;19912;-41
2023/02/22 09:07:51;;;;;;;;;;;;;;;25.12;19.73;99527.63;5090961;28;19923;-42
2023/02/22 09:10:19;;;;;;;;;;;;;;;25.70;19.49;99513.28;5091508;28;19916;-43
2023/02/22 09:12:44;;;;;;;;;;;;;;;26.08;19.33;99507.44;5090399;28;19912;-42
2023/02/22 09:15:10;;;;;;;;;;;;;;;25.81;19.40;99526.63;5091439;28;20295;-42
2023/02/22 09:17:38;;;;;;;;;;;;;;;25.01;20.27;99518.88;5091264;28;19912;-42
2023/02/22 09:20:05;;;;;;;;;;;;;;;24.85;20.15;99515.69;5091140;28;19912;-41
2023/02/22 09:22:30;;;;;;;;;;;;;;;25.34;19.74;99516.81;5090632;28;20379;-42
2023/02/22 09:24:55;;;;;;;;;;;;;;;25.70;19.70;99512.44;5091151;28;19927;-42
2023/02/22 09:27:20;;;;;;;;;;;;;;;24.95;20.10;99520.09;5091282;28;20014;-42
2023/02/22 09:29:49;;;;;;;;;;;;;;;25.36;19.77;99505.63;5090559;28;19916;-41
2023/02/22 09:32:16;;;;;;;;;;;;;;;25.42;20.06;99511.75;5090491;28;20002;-42
2023/02/22 09:34:44;;;;;;;;;;;;;;;25.56;19.61;99510.59;5090722;28;19919;-42
2023/02/22 09:37:10;;;;;;;;;;;;;;;25.35;19.77;99509.47;5091271;28;19912;-43
2023/02/22 09:39:36;;;;;;;;;;;;;;;24.92;19.98;99505.19;5090954;28;20332;-41
2023/02/22 09:42:04;;;;;;;;;;;;;;;25.06;19.96;99496.19;5090803;28;19927;-42
2023/02/22 09:44:35;;;;;;;;;;;;;;;25.79;19.50;99502.41;5090706;28;20317;-42
2023/02/22 09:47:01;;;;;;;;;;;;;;;25.05;20.09;99498.09;5090713;28;19919;-41
2023/02/22 09:49:26;;;;;;;;;;;;;;;24.97;20.14;99490.66;5091124;28;19977;-42
2023/02/22 09:51:57;;;;;;;;;;;;;;;25.16;19.78;99496.75;5089637;28;20360;-41
2023/02/22 09:54:34;;;;;;;;;;;;;;;25.35;19.66;99491.19;5078795;28;19952;-41
2023/02/22 09:57:03;;;;;;;;;;;;;;;25.15;19.71;99494.34;5079327;28;20284;-42
2023/02/22 09:59:36;;;;;;;;;;;;;;;24.89;19.99;99492.19;5079301;28;19928;-42
2023/02/22 10:02:16;;;;;;;;;;;;;;;25.86;19.61;99480.97;5078967;28;20010;-42
2023/02/22 10:04:56;;;;;;;;;;;;;;;25.99;19.29;99482.06;5080541;28;20017;-41
2023/02/22 10:07:23;;;;;;;;;;;;;;;26.47;18.94;99480.50;5081313;28;19924;-42
2023/02/22 10:09:49;;;;;;;;;;;;;;;27.09;18.26;99474.06;5079856;28;20090;-42
2023/02/22 10:12:28;;;;;;;;;;;;;;;26.70;18.42;99478.50;5079603;28;19999;-41
2023/02/22 10:14:53;;;;;;;;;;;;;;;26.91;18.48;99471.31;5079869;28;19916;-43
2023/02/22 10:17:18;;;;;;;;;;;;;;;26.39;18.68;99465.69;5078689;28;19961;-43
2023/02/22 10:19:46;;;;;;;;;;;;;;;26.51;18.63;99460.44;5080517;28;19920;-41
2023/02/22 10:22:26;;;;;;;;;;;;;;;26.57;18.67;99457.56;5079367;28;19918;-42
2023/02/22 10:24:54;;;;;;;;;;;;;;;27.14;18.14;99451.25;5079022;28;19920;-42
2023/02/22 10:27:36;;;;;;;;;;;;;;;26.14;18.71;99451.66;5075457;28;19924;-42
2023/02/22 10:30:25;;;;;;;;;;;;;;;26.49;18.76;99440.84;5070138;28;19919;-41
2023/02/22 10:32:53;;;;;;;;;;;;;;;27.24;18.19;99435.34;5085459;28;20359;-42
2023/02/22 10:35:24;;;;;;;;;;;;;;;27.61;17.84;99438.53;5090250;28;19940;-42
2023/02/22 10:37:52;;;;;;;;;;;;;;;27.40;17.74;99430.22;5090729;28;19912;-41
2023/02/22 10:40:21;;;;;;;;;;;;;;;28.14;17.37;99424.72;5090437;28;19916;-41
2023/02/22 10:42:47;;;;;;;;;;;;;;;28.69;17.09;99412.84;5092760;28;20391;-43
2023/02/22 10:45:33;;;;;;;;;;;;;;;27.88;17.37;99410.03;5093799;28;20011;-42
2023/02/22 10:48:10;;;;;;;;;;;;;;;28.50;17.21;99404.25;5093789;28;20117;-41
2023/02/22 10:50:38;;;;;;;;;;;;;;;28.97;16.85;99401.38;5093378;28;19919;-43
2023/02/22 10:53:03;;;;;;;;;;;;;;;28.59;16.75;99402.31;5092428;28;19912;-42
2023/02/22 10:55:29;;;;;;;;;;;;;;;28.93;16.41;99403.19;5092488;28;19954;-41
2023/02/22 10:57:59;;;;;;;;;;;;;;;28.77;16.48;99395.59;5092725;28;19956;-40
2023/02/22 11:00:36;;;;;;;;;;;;;;;27.95;17.22;99386.84;5092918;28;19912;-42
2023/02/22 11:03:03;;;;;;;;;;;;;;;27.64;17.71;99387.91;5093502;28;19935;-42
2023/02/22 11:05:30;;;;;;;;;;;;;;;27.38;17.81;99390.69;5093757;28;19912;-42
2023/02/22 11:08:14;;;;;;;;;;;;;;;27.40;17.76;99383.00;5093433;28;19954;-37
2023/02/22 11:10:39;;;;;;;;;;;;;;;27.33;17.77;99378.00;5093164;28;19919;-36
2023/02/22 11:13:17;;;;;;;;;;;;;;;28.10;17.04;99369.88;5093101;28;19912;-35
2023/02/22 11:15:43;;;;;;;;;;;;;;;27.92;17.46;99369.19;5093182;28;20403;-37
2023/02/22 11:18:29;;;;;;;;;;;;;;;26.91;17.86;99372.25;5093520;28;19916;-36
2023/02/22 11:21:05;;;;;;;;;;;;;;;26.22;18.63;99362.81;5092880;28;19990;-37
2023/02/22 11:23:31;;;;;;;;;;;;;;;26.80;18.25;99357.31;5092422;28;19977;-36
2023/02/22 11:26:01;;;;;;;;;;;;;;;27.04;17.83;99360.34;5093153;28;19912;-36
2023/02/22 11:28:31;;;;;;;;;;;;;;;26.77;18.37;99366.13;5092811;28;19982;-36
2023/02/22 11:31:17;;;;;;;;;;;;;;;27.19;17.42;99350.03;5092983;28;20125;-36
2023/02/22 11:33:51;;;;;;;;;;;;;;;26.24;17.80;99354.31;5088620;28;20018;-36
2023/02/22 11:36:29;;;;;;;;;;;;;;;26.91;17.54;99355.84;5093060;28;19971;-36
2023/02/22 11:38:57;;;;;;;;;;;;;;;26.36;17.59;99348.25;5092929;28;19943;-37
2023/02/22 11:41:29;;;;;;;;;;;;;;;25.56;18.29;99335.44;5092831;28;20355;-38
2023/02/22 11:44:11;;;;;;;;;;;;;;;25.75;18.02;99327.81;5092810;28;20000;-37
2023/02/22 11:46:39;;;;;;;;;;;;;;;26.23;17.42;99331.69;5092973;28;20015;-38
2023/02/22 11:49:09;;;;;;;;;;;;;;;26.03;17.62;99322.19;5092725;28;19920;-37
2023/02/22 11:51:43;;;;;;;;;;;;;;;26.43;17.29;99333.03;5092779;28;19995;-37
2023/02/22 11:54:24;;;;;;;;;;;;;;;26.31;17.32;99321.91;5091792;28;20398;-38
2023/02/22 11:56:50;;;;;;;;;;;;;;;26.79;17.21;99312.84;5092903;28;19980;-38
2023/02/22 11:59:35;;;;;;;;;;;;;;;26.33;17.47;99317.78;5092594;28;19948;-36
2023/02/22 12:02:19;;;;;;;;;;;;;;;26.56;17.46;99305.91;5092541;28;19912;-40
2023/02/22 12:04:51;;;;;;;;;;;;;;;26.81;17.11;99316.03;5091656;28;20335;-36
2023/02/22 12:07:16;;;;;;;;;;;;;;;27.06;16.89;99305.44;5092066;28;19939;-36
2023/02/22 12:09:42;;;;;;;;;;;;;;;27.36;16.78;99305.53;5092311;28;19961;-37
2023/02/22 12:12:16;;;;;;;;;;;;;;;27.39;16.61;99300.22;5092401;28;19961;-37
2023/02/22 12:14:47;;;;;;;;;;;;;;;27.96;16.05;99295.50;5092334;28;19962;-36
2023/02/22 12:17:30;;;;;;;;;;;;;;;25.82;17.24;99300.13;5092131;28;20328;-37
2023/02/22 12:20:08;;;;;;;;;;;;;;;26.24;17.11;99295.13;5092248;28;19912;-37
2023/02/22 12:22:36;;;;;;;;;;;;;;;26.07;17.49;99290.44;5092145;28;19916;-37
2023/02/22 12:25:02;;;;;;;;;;;;;;;26.31;17.54;99295.47;5091871;28;19920;-38
2023/02/22 12:27:32;;;;;;;;;;;;;;;26.88;17.18;99283.63;5092281;28;19915;-36
2023/02/22 12:30:00;;;;;;;;;;;;;;;27.44;16.94;99274.66;5092495;28;19927;-37
2023/02/22 12:32:31;;;;;;;;;;;;;;;26.99;16.76;99277.81;5092085;28;19918;-36
2023/02/22 12:35:04;;;;;;;;;;;;;;;26.77;16.92;99274.16;5092089;28;20355;-37
2023/02/22 12:37:34;;;;;;;;;;;;;;;26.23;17.50;99279.09;5092215;28;19943;-37
2023/02/22 12:40:15;;;;;;;;;;;;;;;26.19;17.74;99275.41;5091561;28;20010;-37
2023/02/22 12:42:43;;;;;;;;;;;;;;;25.90;17.72;99269.38;5091843;28;19923;-37
2023/02/22 12:45:16;;;;;;;;;;;;;;;26.50;17.71;99269.78;5091676;28;20458;-37
2023/02/22 12:48:06;;;;;;;;;;;;;;;26.64;17.37;99264.22;5091721;28;19919;-36
2023/02/22 12:50:33;;;;;;;;;;;;;;;25.79;17.95;99264.53;5091598;28;19923;-36
2023/02/22 12:53:03;;;;;;;;;;;;;;;25.79;17.91;99264.53;5091659;28;20355;-36